Time;durP1;ratioP1;P1;durP2;ratioP2;P2;SDS_P1;SDS_P2;PMS_P1;PMS_P2;Temp;Humidity;BMP_temperature;BMP_pressure;BME280_temperature;BME280_humidity;BME280_pressure;Samples;Min_cycle;Max_cycle;Signal;HPM_P1;HPM_P2
2023/03/15 00:01:45;;;;;;;6.85;2.63;;;2.70;99.90;;;;;;7360805;19;20771;-67
2023/03/15 00:04:13;;;;;;;8.90;3.42;;;2.70;99.90;;;;;;7368279;19;20022;-67
2023/03/15 00:06:40;;;;;;;7.47;2.50;;;2.70;99.90;;;;;;7367991;19;20134;-67
2023/03/15 00:09:06;;;;;;;8.13;2.28;;;2.70;99.90;;;;;;7368181;19;20014;-66
2023/03/15 00:11:38;;;;;;;8.25;2.45;;;2.70;99.90;;;;;;7369341;19;20026;-66
2023/03/15 00:14:04;;;;;;;12.63;2.92;;;2.70;99.90;;;;;;7370424;19;20025;-66
2023/03/15 00:16:31;;;;;;;8.95;2.67;;;2.70;99.90;;;;;;7370588;19;20481;-67
2023/03/15 00:18:58;;;;;;;7.88;3.08;;;2.70;99.90;;;;;;7367508;19;20006;-66
2023/03/15 00:21:24;;;;;;;11.18;3.08;;;2.70;99.90;;;;;;7364857;19;20019;-66
2023/03/15 00:23:51;;;;;;;4.57;1.95;;;2.70;99.90;;;;;;7366852;19;20022;-66
2023/03/15 00:26:20;;;;;;;13.02;2.83;;;2.80;99.90;;;;;;7369513;19;20018;-66
2023/03/15 00:28:47;;;;;;;7.45;2.40;;;2.80;99.90;;;;;;7371435;19;20036;-66
2023/03/15 00:31:21;;;;;;;6.85;2.13;;;2.70;99.90;;;;;;7364521;19;20018;-67
2023/03/15 00:33:48;;;;;;;7.72;2.22;;;2.80;99.90;;;;;;7370613;19;20026;-67
2023/03/15 00:36:15;;;;;;;6.93;2.30;;;2.80;99.90;;;;;;7369119;19;20029;-67
2023/03/15 00:38:44;;;;;;;5.22;2.35;;;2.90;99.90;;;;;;7367984;19;20018;-67
2023/03/15 00:41:14;;;;;;;5.72;1.65;;;2.90;99.90;;;;;;7371059;19;20018;-67
2023/03/15 00:43:41;;;;;;;8.25;1.95;;;2.90;99.90;;;;;;7370773;19;20022;-67
2023/03/15 00:46:08;;;;;;;9.70;2.35;;;2.80;99.90;;;;;;7369785;19;20018;-67
2023/03/15 00:48:34;;;;;;;11.32;2.60;;;2.80;99.90;;;;;;7369934;19;20102;-66
2023/03/15 00:51:08;;;;;;;12.68;2.60;;;2.80;99.90;;;;;;7369026;19;20018;-66
2023/03/15 00:53:36;;;;;;;6.15;1.80;;;2.70;99.90;;;;;;7367176;19;20930;-66
2023/03/15 00:56:09;;;;;;;9.07;1.80;;;2.70;99.90;;;;;;7366153;19;20039;-66
2023/03/15 00:58:35;;;;;;;7.80;2.55;;;2.70;99.90;;;;;;7372326;19;20027;-66
2023/03/15 01:01:09;;;;;;;8.30;1.90;;;2.70;99.90;;;;;;7365022;19;20026;-67
2023/03/15 01:03:39;;;;;;;9.60;1.85;;;2.70;99.90;;;;;;7361635;19;20047;-66
2023/03/15 01:06:13;;;;;;;12.63;2.42;;;2.60;99.90;;;;;;7362389;19;20030;-66
2023/03/15 01:08:41;;;;;;;9.93;2.50;;;2.60;99.90;;;;;;7371027;19;20018;-66
2023/03/15 01:11:12;;;;;;;9.10;2.20;;;2.60;99.90;;;;;;7361794;19;20022;-66
2023/03/15 01:13:38;;;;;;;13.45;2.65;;;2.60;99.90;;;;;;7366568;19;20022;-66
2023/03/15 01:16:05;;;;;;;8.45;1.98;;;2.70;99.90;;;;;;7362100;19;20022;-67
2023/03/15 01:18:32;;;;;;;17.23;2.25;;;2.70;99.90;;;;;;7366627;19;20529;-67
2023/03/15 01:20:59;;;;;;;8.68;2.20;;;2.70;99.90;;;;;;7364535;19;20085;-68
2023/03/15 01:23:25;;;;;;;11.23;1.90;;;2.70;99.90;;;;;;7366860;19;20034;-67
2023/03/15 01:25:52;;;;;;;8.73;1.70;;;2.60;99.90;;;;;;7363204;19;20050;-67
2023/03/15 01:28:18;;;;;;;12.18;2.20;;;2.70;99.90;;;;;;7364989;19;20085;-67
2023/03/15 01:30:50;;;;;;;10.93;2.40;;;2.70;99.90;;;;;;7364415;19;20035;-68
2023/03/15 01:33:22;;;;;;;6.85;1.90;;;2.60;99.90;;;;;;7363670;19;20019;-67
2023/03/15 01:36:05;;;;;;;13.82;2.70;;;2.70;99.90;;;;;;7364325;19;20015;-67
2023/03/15 01:38:44;;;;;;;8.82;2.08;;;2.60;99.90;;;;;;7365327;19;20022;-67
2023/03/15 01:41:12;;;;;;;7.53;1.58;;;2.60;99.90;;;;;;7366164;19;20022;-67
2023/03/15 01:43:45;;;;;;;9.50;1.80;;;2.60;99.90;;;;;;7367200;19;20910;-67
2023/03/15 01:46:33;;;;;;;8.82;1.83;;;2.50;99.90;;;;;;7365900;19;20058;-67
2023/03/15 01:49:25;;;;;;;6.18;1.58;;;2.50;99.90;;;;;;7366284;19;20019;-67
2023/03/15 01:52:08;;;;;;;10.23;2.05;;;2.40;99.90;;;;;;7365529;19;20509;-66
2023/03/15 01:54:57;;;;;;;9.27;1.95;;;2.30;99.90;;;;;;7366910;19;20019;-66
2023/03/15 01:57:29;;;;;;;;;;;2.30;99.90;;;;;;7368481;19;20026;-66
2023/03/15 02:00:10;;;;;;;7.32;1.75;;;2.20;99.90;;;;;;7364864;19;19927;-66
2023/03/15 02:02:59;;;;;;;6.85;1.40;;;2.10;99.90;;;;;;7369089;19;20072;-66
2023/03/15 02:05:31;;;;;;;9.80;2.00;;;2.10;99.90;;;;;;7366898;19;20032;-66
2023/03/15 02:08:01;;;;;;;9.15;2.28;;;2.10;99.90;;;;;;7358592;19;20069;-67
2023/03/15 02:10:48;;;;;;;9.55;2.55;;;2.10;99.90;;;;;;7363799;19;20018;-67
2023/03/15 02:13:21;;;;;;;8.68;2.00;;;2.10;99.90;;;;;;7360672;19;20042;-67
2023/03/15 02:15:48;;;;;;;8.18;2.13;;;2.10;99.90;;;;;;7363046;19;20015;-65
2023/03/15 02:18:22;;;;;;;10.95;1.80;;;2.10;99.90;;;;;;7366641;19;20717;-66
2023/03/15 02:21:05;;;;;;;7.05;1.40;;;2.00;99.90;;;;;;7361642;19;21187;-66
2023/03/15 02:23:32;;;;;;;5.82;1.60;;;2.00;99.90;;;;;;7363886;19;20028;-65
2023/03/15 02:26:15;;;;;;;10.68;1.70;;;2.00;99.90;;;;;;7361252;19;20015;-68
2023/03/15 02:28:42;;;;;;;6.05;1.70;;;2.00;99.90;;;;;;7363055;19;20018;-67
2023/03/15 02:31:09;;;;;;;15.90;2.00;;;1.90;99.90;;;;;;7361075;19;20778;-68
2023/03/15 02:33:40;;;;;;;7.93;1.55;;;1.90;99.90;;;;;;7366370;19;20022;-67
2023/03/15 02:36:27;;;;;;;6.22;1.80;;;1.80;99.90;;;;;;7361418;19;20771;-67
2023/03/15 02:38:54;;;;;;;6.40;1.40;;;1.90;99.90;;;;;;7362518;19;20029;-67
2023/03/15 02:41:32;;;;;;;7.57;1.77;;;1.90;99.90;;;;;;7369344;19;20128;-67
2023/03/15 02:44:07;;;;;;;14.93;2.60;;;1.90;99.90;;;;;;7372732;19;20568;-67
2023/03/15 02:46:37;;;;;;;6.18;1.30;;;1.80;99.90;;;;;;7370842;19;20015;-67
2023/03/15 02:49:06;;;;;;;6.40;1.75;;;1.80;99.90;;;;;;7372671;19;20026;-67
2023/03/15 02:51:38;;;;;;;9.98;1.92;;;1.80;99.90;;;;;;7374205;19;20026;-66
2023/03/15 02:54:05;;;;;;;9.80;1.83;;;1.80;99.90;;;;;;7371661;19;20804;-66
2023/03/15 02:56:32;;;;;;;10.52;2.15;;;1.80;99.90;;;;;;7370713;19;20018;-66
2023/03/15 02:58:59;;;;;;;11.38;2.05;;;1.80;99.90;;;;;;7374749;19;20015;-66
2023/03/15 03:01:26;;;;;;;9.77;1.42;;;1.70;99.90;;;;;;7377827;19;20071;-66
2023/03/15 03:03:52;;;;;;;9.13;1.73;;;1.70;99.90;;;;;;7378726;19;20011;-65
2023/03/15 03:06:19;;;;;;;14.50;2.00;;;1.70;99.90;;;;;;7378019;19;20050;-66
2023/03/15 03:08:46;;;;;;;12.18;2.50;;;1.60;99.90;;;;;;7377589;19;20502;-67
2023/03/15 03:11:16;;;;;;;8.90;2.20;;;1.50;99.90;;;;;;7375826;19;20022;-67
2023/03/15 03:13:42;;;;;;;11.35;2.15;;;1.50;99.90;;;;;;7374083;19;20043;-67
2023/03/15 03:16:09;;;;;;;9.35;1.55;;;1.50;99.90;;;;;;7366338;19;20022;-67
2023/03/15 03:18:36;;;;;;;12.02;1.52;;;1.50;99.90;;;;;;7378035;19;20029;-67
2023/03/15 03:21:06;;;;;;;11.07;1.75;;;1.40;99.90;;;;;;7363767;19;20114;-67
2023/03/15 03:23:34;;;;;;;10.13;1.38;;;1.40;99.90;;;;;;7364175;19;20038;-67
2023/03/15 03:26:01;;;;;;;8.88;1.55;;;1.40;99.90;;;;;;7361098;19;20015;-67
2023/03/15 03:28:30;;;;;;;3.92;1.10;;;1.40;99.90;;;;;;7364879;19;20018;-67
2023/03/15 03:30:58;;;;;;;7.15;1.67;;;1.30;99.90;;;;;;7358730;19;20538;-66
2023/03/15 03:33:24;;;;;;;9.27;1.67;;;1.30;99.90;;;;;;7361758;19;21838;-65
2023/03/15 03:35:50;;;;;;;8.80;1.63;;;1.20;99.90;;;;;;7360274;19;20026;-66
2023/03/15 03:38:17;;;;;;;10.38;1.80;;;1.20;99.90;;;;;;7362298;19;20023;-66
2023/03/15 03:40:49;;;;;;;5.50;1.67;;;1.10;99.90;;;;;;7366159;19;20597;-65
2023/03/15 03:43:16;;;;;;;6.47;1.65;;;1.10;99.90;;;;;;7364888;19;20026;-66
2023/03/15 03:45:43;;;;;;;7.82;1.42;;;1.00;99.90;;;;;;7364855;19;20898;-66
2023/03/15 03:48:11;;;;;;;9.35;1.80;;;1.00;99.90;;;;;;7365302;19;20871;-67
2023/03/15 03:50:37;;;;;;;8.48;1.58;;;1.00;99.90;;;;;;7366653;19;20018;-65
2023/03/15 03:53:04;;;;;;;11.65;1.92;;;1.00;99.90;;;;;;7363572;19;20023;-65
2023/03/15 03:55:33;;;;;;;5.15;1.20;;;1.00;99.90;;;;;;7361660;19;20025;-65
2023/03/15 03:58:00;;;;;;;10.02;1.63;;;0.90;99.90;;;;;;7362742;19;20015;-66
2023/03/15 04:00:47;;;;;;;10.75;1.50;;;0.90;99.90;;;;;;7365990;19;20023;-66
2023/03/15 04:03:14;;;;;;;8.43;1.40;;;0.90;99.90;;;;;;7362388;19;20675;-66
2023/03/15 04:05:44;;;;;;;8.73;2.20;;;0.90;99.90;;;;;;7363103;19;20022;-65
2023/03/15 04:08:16;;;;;;;7.50;1.75;;;0.90;99.90;;;;;;7362712;19;20018;-65
2023/03/15 04:10:50;;;;;;;9.25;1.60;;;0.80;99.90;;;;;;7363305;19;20019;-66
2023/03/15 04:13:21;;;;;;;9.35;2.03;;;0.80;99.90;;;;;;7360999;19;20056;-66
2023/03/15 04:15:50;;;;;;;5.95;1.50;;;0.80;99.90;;;;;;7357680;19;20018;-66
2023/03/15 04:18:17;;;;;;;11.73;1.90;;;0.90;99.90;;;;;;7359316;19;20608;-66
2023/03/15 04:20:47;;;;;;;9.93;2.08;;;1.00;99.90;;;;;;7360818;19;20025;-65
2023/03/15 04:23:17;;;;;;;8.98;1.55;;;1.00;99.90;;;;;;7360411;19;20023;-67
2023/03/15 04:26:04;;;;;;;5.50;1.23;;;1.00;99.90;;;;;;7362907;19;20032;-67
2023/03/15 04:28:49;;;;;;;7.05;1.33;;;1.00;99.90;;;;;;7364148;19;21425;-67
2023/03/15 04:31:36;;;;;;;10.60;3.03;;;1.00;99.90;;;;;;7362062;19;20789;-67
2023/03/15 04:34:16;;;;;;;7.72;1.42;;;1.00;99.90;;;;;;7363928;19;20022;-67
2023/03/15 04:36:56;;;;;;;5.20;1.40;;;1.00;99.90;;;;;;7362718;19;20023;-67
2023/03/15 04:39:41;;;;;;;6.07;1.50;;;1.00;99.90;;;;;;7364182;19;20481;-67
2023/03/15 04:42:26;;;;;;;7.30;1.52;;;0.90;99.90;;;;;;7369740;19;20035;-67
2023/03/15 04:45:19;;;;;;;7.85;1.40;;;0.90;99.90;;;;;;7363602;19;20027;-67
2023/03/15 04:48:09;;;;;;;8.25;2.05;;;0.90;99.90;;;;;;7357545;19;20616;-67
2023/03/15 04:50:37;;;;;;;9.55;2.05;;;0.80;99.90;;;;;;7359971;19;20018;-67
2023/03/15 04:53:09;;;;;;;6.70;1.75;;;0.80;99.90;;;;;;7364613;19;20022;-67
2023/03/15 04:56:00;;;;;;;6.20;1.70;;;0.70;99.90;;;;;;7358620;19;20788;-67
2023/03/15 04:58:54;;;;;;;11.23;1.73;;;0.70;99.90;;;;;;7363072;19;20048;-67
2023/03/15 05:01:39;;;;;;;8.68;1.67;;;0.70;99.90;;;;;;7356404;19;20497;-67
2023/03/15 05:04:24;;;;;;;6.65;1.40;;;0.60;99.90;;;;;;7360508;19;21171;-67
2023/03/15 05:07:15;;;;;;;11.25;1.42;;;0.60;99.90;;;;;;7357109;19;20761;-67
2023/03/15 05:10:06;;;;;;;9.10;1.42;;;0.60;99.90;;;;;;7358779;19;20011;-67
2023/03/15 05:13:02;;;;;;;5.00;1.30;;;0.60;99.90;;;;;;7355621;19;20030;-67
2023/03/15 05:15:50;;;;;;;4.97;1.40;;;0.60;99.90;;;;;;7357728;19;20490;-67
2023/03/15 05:18:40;;;;;;;8.75;1.45;;;0.60;99.90;;;;;;7360422;19;20011;-68
2023/03/15 05:21:24;;;;;;;3.13;1.15;;;0.50;99.90;;;;;;7359115;19;20035;-67
2023/03/15 05:24:20;;;;;;;11.48;1.83;;;0.40;99.90;;;;;;7356187;19;20027;-67
2023/03/15 05:26:54;;;;;;;11.23;1.73;;;0.60;99.90;;;;;;7350143;19;20018;-65
2023/03/15 05:29:50;;;;;;;4.95;1.10;;;0.60;99.90;;;;;;7358629;19;20033;-66
2023/03/15 05:32:46;;;;;;;6.72;1.73;;;0.60;99.90;;;;;;7357934;19;20029;-66
2023/03/15 05:35:45;;;;;;;9.93;1.42;;;0.70;99.90;;;;;;7356700;19;20057;-66
2023/03/15 05:38:31;;;;;;;6.60;1.48;;;0.70;99.90;;;;;;7357519;19;20503;-67
2023/03/15 05:41:16;;;;;;;9.05;1.98;;;0.70;99.90;;;;;;7353596;19;20014;-66
2023/03/15 05:43:58;;;;;;;9.20;1.75;;;0.70;99.90;;;;;;7371430;19;20061;-66
2023/03/15 05:46:27;;;;;;;8.00;1.55;;;0.80;99.90;;;;;;7371135;19;20358;-66
2023/03/15 05:48:53;;;;;;;13.57;2.42;;;0.80;99.90;;;;;;7366829;19;20489;-65
2023/03/15 05:51:49;;;;;;;12.82;1.90;;;0.90;99.90;;;;;;7364961;19;20026;-67
2023/03/15 05:54:38;;;;;;;6.15;1.73;;;0.90;99.90;;;;;;7366560;19;20060;-67
2023/03/15 05:57:22;;;;;;;9.70;1.80;;;1.00;99.90;;;;;;7370703;19;20014;-67
2023/03/15 06:00:11;;;;;;;6.28;1.45;;;1.00;99.90;;;;;;7370214;19;20026;-67
2023/03/15 06:02:42;;;;;;;9.20;2.70;;;1.10;99.90;;;;;;7371988;19;20018;-67
2023/03/15 06:05:32;;;;;;;7.78;1.45;;;1.10;99.90;;;;;;7369352;19;20033;-67
2023/03/15 06:08:02;;;;;;;6.63;1.25;;;1.10;99.90;;;;;;7370551;19;20033;-67
2023/03/15 06:10:29;;;;;;;8.93;1.60;;;1.10;99.90;;;;;;7363114;19;20026;-67
2023/03/15 06:12:57;;;;;;;6.65;1.33;;;1.10;99.90;;;;;;7367648;19;20022;-67
2023/03/15 06:15:26;;;;;;;5.78;1.67;;;1.10;99.90;;;;;;7367532;19;20023;-66
2023/03/15 06:18:13;;;;;;;13.00;1.95;;;1.10;99.90;;;;;;7379397;19;20793;-68
2023/03/15 06:20:40;;;;;;;5.90;1.60;;;1.10;99.90;;;;;;7374094;19;20058;-68
2023/03/15 06:23:11;;;;;;;6.13;1.35;;;1.10;99.90;;;;;;7376860;19;20048;-68
2023/03/15 06:25:44;;;;;;;7.07;1.50;;;1.20;99.90;;;;;;7374221;19;20785;-67
2023/03/15 06:28:13;;;;;;;7.20;1.50;;;1.20;99.90;;;;;;7375835;19;20018;-67
2023/03/15 06:30:44;;;;;;;16.93;2.57;;;1.10;99.90;;;;;;7376061;19;20014;-67
2023/03/15 06:33:11;;;;;;;7.53;1.85;;;1.10;99.90;;;;;;7373456;19;20718;-68
2023/03/15 06:35:37;;;;;;;9.35;1.92;;;1.10;99.90;;;;;;7372264;19;20077;-67
2023/03/15 06:38:04;;;;;;;6.10;1.75;;;1.10;99.90;;;;;;7370899;19;20373;-67
2023/03/15 06:40:31;;;;;;;6.70;1.80;;;1.20;99.90;;;;;;7377099;19;20018;-68
2023/03/15 06:43:02;;;;;;;8.77;1.60;;;1.20;99.90;;;;;;7377836;19;20493;-67
2023/03/15 06:45:30;;;;;;;8.27;1.98;;;1.10;99.90;;;;;;7372405;19;20037;-67
2023/03/15 06:47:58;;;;;;;7.32;1.65;;;1.20;99.90;;;;;;7373528;19;20029;-67
2023/03/15 06:50:25;;;;;;;8.77;1.75;;;1.30;99.90;;;;;;7373550;19;20094;-68
2023/03/15 06:52:59;;;;;;;7.70;1.60;;;1.30;99.90;;;;;;7376945;19;20577;-68
2023/03/15 06:55:26;;;;;;;7.20;1.50;;;1.40;99.90;;;;;;7374706;19;20018;-68
2023/03/15 06:57:53;;;;;;;4.72;1.35;;;1.40;99.90;;;;;;7376647;19;20021;-68
2023/03/15 07:00:21;;;;;;;6.65;1.40;;;1.40;99.90;;;;;;7375276;19;20078;-67
2023/03/15 07:02:54;;;;;;;7.70;1.35;;;1.50;99.90;;;;;;7377761;19;20041;-68
2023/03/15 07:05:21;;;;;;;7.30;1.55;;;1.60;99.90;;;;;;7375332;19;20026;-68
2023/03/15 07:07:47;;;;;;;9.18;1.60;;;1.70;99.90;;;;;;7375146;19;20119;-67
2023/03/15 07:10:13;;;;;;;5.63;1.10;;;1.90;99.90;;;;;;7374889;19;21217;-67
2023/03/15 07:12:39;;;;;;;6.63;1.27;;;2.10;99.90;;;;;;7376874;19;20022;-65
2023/03/15 07:15:06;;;;;;;5.50;1.40;;;2.30;99.90;;;;;;7374012;19;20029;-68
2023/03/15 07:17:33;;;;;;;6.53;1.42;;;2.50;99.90;;;;;;7380070;19;20010;-67
2023/03/15 07:20:04;;;;;;;7.40;1.38;;;2.70;99.90;;;;;;7373684;19;20018;-68
2023/03/15 07:22:34;;;;;;;6.63;1.35;;;2.90;99.90;;;;;;7377365;19;20680;-67
2023/03/15 07:25:00;;;;;;;6.93;2.13;;;3.10;99.90;;;;;;7374298;19;20110;-67
2023/03/15 07:27:28;;;;;;;5.70;1.27;;;3.30;99.90;;;;;;7375652;19;20643;-65
2023/03/15 07:29:54;;;;;;;5.47;1.38;;;3.50;99.90;;;;;;7374286;19;20030;-64
2023/03/15 07:32:20;;;;;;;6.22;1.60;;;3.70;99.90;;;;;;7374046;19;20018;-65
2023/03/15 07:34:49;;;;;;;7.78;1.48;;;3.90;99.90;;;;;;7370177;19;20034;-66
2023/03/15 07:37:16;;;;;;;7.65;1.30;;;4.20;99.90;;;;;;7375894;19;20589;-68
2023/03/15 07:39:43;;;;;;;7.18;1.50;;;4.40;99.90;;;;;;7376205;19;20051;-65
2023/03/15 07:42:09;;;;;;;7.05;2.17;;;4.50;99.90;;;;;;7373646;19;20018;-67
2023/03/15 07:44:40;;;;;;;6.63;1.67;;;4.80;99.90;;;;;;7368852;19;20022;-64
2023/03/15 07:47:07;;;;;;;7.00;1.67;;;5.00;99.90;;;;;;7373557;19;20064;-65
2023/03/15 07:49:33;;;;;;;9.95;1.30;;;5.20;99.90;;;;;;7374219;19;20018;-66
2023/03/15 07:51:59;;;;;;;5.45;1.20;;;5.40;99.90;;;;;;7372302;19;20026;-64
2023/03/15 07:54:28;;;;;;;6.63;1.48;;;5.60;99.90;;;;;;7374518;19;20047;-65
2023/03/15 07:56:54;;;;;;;7.47;1.60;;;5.90;99.90;;;;;;7376214;19;20050;-67
2023/03/15 07:59:20;;;;;;;6.90;1.52;;;6.20;99.90;;;;;;7375369;19;20018;-64
2023/03/15 08:01:46;;;;;;;7.80;1.75;;;6.30;99.90;;;;;;7371581;19;20022;-64
2023/03/15 08:04:13;;;;;;;7.20;1.50;;;6.60;99.90;;;;;;7370975;19;20018;-64
2023/03/15 08:06:40;;;;;;;7.40;1.48;;;7.00;99.90;;;;;;7374252;19;20033;-67
2023/03/15 08:09:06;;;;;;;6.63;1.20;;;7.10;99.90;;;;;;7375232;19;20018;-66
2023/03/15 08:11:33;;;;;;;9.65;1.90;;;7.40;99.90;;;;;;7375161;19;20018;-67
2023/03/15 08:13:59;;;;;;;6.72;1.50;;;7.80;99.90;;;;;;7374853;19;20027;-66
2023/03/15 08:16:26;;;;;;;4.70;1.30;;;7.90;99.90;;;;;;7373654;19;20489;-71
2023/03/15 08:18:52;;;;;;;6.65;1.52;;;8.00;99.90;;;;;;7373110;19;20039;-64
2023/03/15 08:21:20;;;;;;;8.88;1.83;;;8.20;99.90;;;;;;7374441;19;20105;-65
2023/03/15 08:23:55;;;;;;;7.75;1.40;;;8.70;99.90;;;;;;7373554;19;20027;-67
2023/03/15 08:26:21;;;;;;;15.27;7.53;;;8.90;99.90;;;;;;7374055;19;20772;-51
2023/03/15 08:28:48;;;;;;;7.95;1.27;;;8.50;99.90;;;;;;7371226;19;20025;-66
2023/03/15 08:31:14;;;;;;;10.43;2.03;;;8.90;99.90;;;;;;7377858;19;20813;-68
2023/03/15 08:33:41;;;;;;;6.85;1.75;;;8.90;99.90;;;;;;7373151;19;20021;-70
2023/03/15 08:36:07;;;;;;;5.45;1.20;;;9.00;99.90;;;;;;7369898;19;20023;-65
2023/03/15 08:38:34;;;;;;;7.97;1.50;;;9.00;99.90;;;;;;7371174;19;20022;-66
2023/03/15 08:41:05;;;;;;;8.30;1.50;;;9.10;99.90;;;;;;7370841;19;20023;-71
2023/03/15 08:43:45;;;;;;;4.55;1.13;;;9.40;99.90;;;;;;7374211;19;20014;-68
2023/03/15 08:46:11;;;;;;;7.32;1.63;;;9.50;99.90;;;;;;7371426;19;20837;-66
2023/03/15 08:48:37;;;;;;;6.07;1.27;;;9.50;99.90;;;;;;7374472;19;20015;-66
2023/03/15 08:51:05;;;;;;;7.28;1.27;;;9.60;99.90;;;;;;7371751;19;20612;-66
2023/03/15 08:53:32;;;;;;;7.05;1.33;;;9.80;99.90;;;;;;7375225;19;20099;-66
2023/03/15 08:55:59;;;;;;;8.40;1.55;;;9.70;99.90;;;;;;7374397;19;20374;-71
2023/03/15 08:58:27;;;;;;;5.50;1.20;;;10.00;99.90;;;;;;7370551;19;20027;-66
2023/03/15 09:00:54;;;;;;;7.60;1.95;;;10.20;99.90;;;;;;7372590;19;20542;-70
2023/03/15 09:03:21;;;;;;;5.78;1.40;;;10.40;99.90;;;;;;7364337;19;20011;-71
2023/03/15 09:05:47;;;;;;;7.82;1.60;;;10.40;99.90;;;;;;7376110;19;20026;-71
2023/03/15 09:08:17;;;;;;;5.75;1.52;;;10.90;99.90;;;;;;7371151;19;20014;-67
2023/03/15 09:10:43;;;;;;;4.93;1.27;;;10.90;99.90;;;;;;7372855;19;20575;-66
2023/03/15 09:13:10;;;;;;;7.25;1.52;;;10.30;98.60;;;;;;7368321;19;20092;-71
2023/03/15 09:15:36;;;;;;;5.88;1.50;;;10.40;99.90;;;;;;7370212;19;20789;-71
2023/03/15 09:18:02;;;;;;;5.07;1.23;;;10.40;99.90;;;;;;7370752;19;20027;-71
2023/03/15 09:20:30;;;;;;;6.63;1.30;;;10.60;99.20;;;;;;7371779;19;20026;-71
2023/03/15 09:22:57;;;;;;;4.40;1.35;;;10.70;93.10;;;;;;7372081;19;20621;-66
2023/03/15 09:25:24;;;;;;;5.90;1.02;;;11.00;94.90;;;;;;7362740;19;20065;-66
2023/03/15 09:27:53;;;;;;;7.30;1.88;;;11.10;73.10;;;;;;7370404;19;20014;-71
2023/03/15 09:30:20;;;;;;;4.75;1.35;;;11.10;80.90;;;;;;7368147;19;20018;-67
2023/03/15 09:32:46;;;;;;;5.00;1.67;;;11.60;84.40;;;;;;7368595;19;20018;-71
2023/03/15 09:35:17;;;;;;;5.68;1.38;;;11.40;72.70;;;;;;7364598;19;20110;-71
2023/03/15 09:37:43;;;;;;;7.28;1.65;;;10.80;76.90;;;;;;7372818;19;20018;-71
2023/03/15 09:40:31;;;;;;;5.97;1.77;;;10.50;82.70;;;;;;7373646;19;20030;-66
2023/03/15 09:43:07;;;;;;;5.65;1.20;;;10.60;93.30;;;;;;7371008;19;20394;-71
2023/03/15 09:46:31;;;;;;;4.18;1.10;;;10.90;93.10;;;;;;7369241;19;20022;-71
2023/03/15 09:49:10;;;;;;;3.58;1.25;;;11.30;89.00;;;;;;7368008;19;20018;-71
2023/03/15 09:51:49;;;;;;;4.97;1.00;;;11.00;78.60;;;;;;7369910;19;20439;-66
2023/03/15 09:54:25;;;;;;;3.58;1.00;;;11.90;75.10;;;;;;7367920;19;20043;-72
2023/03/15 09:56:57;;;;;;;4.70;1.00;;;12.50;74.40;;;;;;7369763;19;20646;-72
2023/03/15 09:59:32;;;;;;;5.88;1.25;;;12.20;66.40;;;;;;7372369;19;20046;-72
2023/03/15 10:02:03;;;;;;;2.90;1.00;;;12.30;67.70;;;;;;7367267;19;20063;-66
2023/03/15 10:04:36;;;;;;;6.47;1.53;;;12.60;66.60;;;;;;7364861;19;20018;-67
2023/03/15 10:07:05;;;;;;;5.53;1.70;;;12.30;65.60;;;;;;7364220;19;20500;-73
2023/03/15 10:09:32;;;;;;;4.65;1.17;;;12.20;63.50;;;;;;7362825;19;20727;-72
2023/03/15 10:12:02;;;;;;;4.90;1.27;;;12.00;63.40;;;;;;7366533;19;20022;-72
2023/03/15 10:14:51;;;;;;;3.97;1.08;;;12.30;63.40;;;;;;7366057;19;20984;-66
2023/03/15 10:17:30;;;;;;;6.13;1.25;;;12.20;62.60;;;;;;7368266;19;20048;-66
2023/03/15 10:20:02;;;;;;;5.57;1.20;;;12.90;60.80;;;;;;7369263;19;20379;-73
2023/03/15 10:22:46;;;;;;;8.60;1.52;;;13.20;61.50;;;;;;7366924;19;20125;-66
2023/03/15 10:25:23;;;;;;;8.88;1.95;;;13.60;58.80;;;;;;7371841;19;20021;-73
2023/03/15 10:27:56;;;;;;;5.82;1.40;;;12.90;58.90;;;;;;7372993;19;20105;-66
2023/03/15 10:30:28;;;;;;;5.93;1.60;;;13.40;58.20;;;;;;7364832;19;20042;-73
2023/03/15 10:33:01;;;;;;;7.65;1.33;;;13.10;55.40;;;;;;7368866;19;20049;-67
2023/03/15 10:35:28;;;;;;;6.43;1.35;;;12.60;55.40;;;;;;7366614;19;20018;-73
2023/03/15 10:37:54;;;;;;;5.85;1.33;;;12.60;57.50;;;;;;7366155;19;20023;-73
2023/03/15 10:40:43;;;;;;;5.65;1.45;;;12.20;56.40;;;;;;7368597;19;20018;-73
2023/03/15 10:43:23;;;;;;;7.40;1.40;;;11.10;56.70;;;;;;7370799;19;20018;-67
2023/03/15 10:46:01;;;;;;;5.88;1.27;;;12.00;58.60;;;;;;7370786;19;20022;-75
2023/03/15 10:48:30;;;;;;;8.27;1.42;;;13.20;56.70;;;;;;7370255;19;20791;-73
2023/03/15 10:50:59;;;;;;;5.22;1.10;;;12.30;55.70;;;;;;7370395;19;20094;-67
2023/03/15 10:53:26;;;;;;;8.40;2.03;;;11.50;58.10;;;;;;7362397;19;20021;-72
2023/03/15 10:56:06;;;;;;;6.80;1.35;;;11.30;60.00;;;;;;7364341;19;20023;-72
2023/03/15 10:58:47;;;;;;;6.20;1.42;;;10.30;61.70;;;;;;7362726;19;20018;-67
2023/03/15 11:01:23;;;;;;;8.15;2.08;;;10.70;63.10;;;;;;7360179;19;20042;-72
2023/03/15 11:04:19;;;;;;;5.25;1.00;;;10.30;60.60;;;;;;7366819;19;20014;-67
2023/03/15 11:06:57;;;;;;;4.55;1.17;;;10.10;59.30;;;;;;7362485;19;20677;-68
2023/03/15 11:09:36;;;;;;;5.68;1.25;;;10.30;59.30;;;;;;7377284;19;20018;-72
2023/03/15 11:12:05;;;;;;;5.43;1.38;;;11.40;58.40;;;;;;7376911;19;20115;-72
2023/03/15 11:14:39;;;;;;;6.65;1.52;;;12.70;58.50;;;;;;7372570;19;20500;-67
2023/03/15 11:17:14;;;;;;;7.22;1.67;;;13.60;56.90;;;;;;7370833;19;20011;-68
2023/03/15 11:19:45;;;;;;;5.22;0.98;;;13.40;55.30;;;;;;7376526;19;20034;-73
2023/03/15 11:22:12;;;;;;;5.72;0.90;;;14.10;55.60;;;;;;7374334;19;20773;-68
2023/03/15 11:24:39;;;;;;;4.93;1.33;;;13.70;50.30;;;;;;7376870;19;20018;-73
2023/03/15 11:27:15;;;;;;;8.55;1.60;;;13.50;51.40;;;;;;7374060;19;20018;-68
2023/03/15 11:29:48;;;;;;;5.40;0.95;;;12.90;50.50;;;;;;7376647;19;20026;-74
2023/03/15 11:32:24;;;;;;;4.38;1.00;;;13.30;50.10;;;;;;7372380;19;20022;-68
2023/03/15 11:35:09;;;;;;;5.60;1.00;;;14.30;48.80;;;;;;7375817;19;20508;-69
2023/03/15 11:37:45;;;;;;;4.07;1.05;;;13.10;48.50;;;;;;7366606;19;20022;-68
2023/03/15 11:40:17;;;;;;;5.97;2.50;;;13.50;51.10;;;;;;7364787;19;20761;-68
2023/03/15 11:43:01;;;;;;;4.57;1.48;;;13.40;50.90;;;;;;7361613;19;20022;-68
2023/03/15 11:45:41;;;;;;;5.15;1.08;;;13.80;50.40;;;;;;7368901;19;20025;-68
2023/03/15 11:48:41;;;;;;;6.00;1.10;;;14.70;50.40;;;;;;7371772;19;20014;-74
2023/03/15 11:51:10;;;;;;;3.50;1.10;;;15.20;50.00;;;;;;7374017;19;20431;-68
2023/03/15 11:53:49;;;;;;;5.50;1.05;;;15.00;48.40;;;;;;7374140;19;20015;-74
2023/03/15 11:56:49;;;;;;;7.47;1.48;;;15.50;47.80;;;;;;7372323;19;20432;-68
2023/03/15 11:59:24;;;;;;;7.18;1.20;;;15.50;47.10;;;;;;7371741;19;20867;-74
2023/03/15 12:02:05;;;;;;;4.18;1.15;;;15.60;48.20;;;;;;7374685;19;20022;-74
2023/03/15 12:04:31;;;;;;;6.27;1.20;;;15.70;47.50;;;;;;7377611;19;20046;-74
2023/03/15 12:07:02;;;;;;;5.13;1.25;;;15.40;47.10;;;;;;7371659;19;20817;-73
2023/03/15 12:09:31;;;;;;;6.00;1.10;;;15.80;48.60;;;;;;7374193;19;20019;-74
2023/03/15 12:12:03;;;;;;;4.78;1.63;;;16.60;47.70;;;;;;7372777;19;20834;-68
2023/03/15 12:14:34;;;;;;;4.72;1.48;;;16.80;46.70;;;;;;7368976;19;20030;-73
2023/03/15 12:17:22;;;;;;;5.20;1.20;;;16.30;46.00;;;;;;7367900;19;20799;-68
2023/03/15 12:20:13;;;;;;;7.78;1.38;;;16.20;47.10;;;;;;7372286;19;20022;-73
2023/03/15 12:22:51;;;;;;;4.05;1.08;;;16.50;45.60;;;;;;7375293;19;20022;-73
2023/03/15 12:25:23;;;;;;;5.97;1.45;;;14.70;47.00;;;;;;7370770;19;20015;-68
2023/03/15 12:27:57;;;;;;;5.35;1.10;;;15.20;49.60;;;;;;7378539;19;20062;-68
2023/03/15 12:30:41;;;;;;;5.63;1.48;;;15.30;47.80;;;;;;7371863;19;20042;-67
2023/03/15 12:33:19;;;;;;;6.22;1.45;;;15.80;46.60;;;;;;7373649;19;20123;-73
2023/03/15 12:35:47;;;;;;;5.47;1.52;;;15.50;46.20;;;;;;7373354;19;20023;-73
2023/03/15 12:38:23;;;;;;;4.47;1.05;;;15.50;47.20;;;;;;7369024;19;20024;-74
2023/03/15 12:40:56;;;;;;;7.28;1.38;;;15.70;46.30;;;;;;7370644;19;20015;-72
2023/03/15 12:43:42;;;;;;;5.10;1.27;;;16.30;46.70;;;;;;7367930;19;20058;-68
2023/03/15 12:46:44;;;;;;;4.88;1.55;;;15.80;45.80;;;;;;7373660;19;20029;-68
2023/03/15 12:49:27;;;;;;;5.05;1.58;;;15.10;46.90;;;;;;7360315;19;20549;-68
2023/03/15 12:52:12;;;;;;;4.57;1.05;;;15.50;45.40;;;;;;7368532;19;20074;-68
2023/03/15 12:54:42;;;;;;;6.47;1.40;;;14.20;45.00;;;;;;7364759;19;20019;-68
2023/03/15 12:57:11;;;;;;;3.95;1.00;;;14.50;46.60;;;;;;7369651;19;20090;-72
2023/03/15 13:00:00;;;;;;;3.35;0.98;;;15.60;46.20;;;;;;7371945;19;20026;-74
2023/03/15 13:02:33;;;;;;;5.22;1.00;;;15.70;46.70;;;;;;7371732;19;20101;-74
2023/03/15 13:05:23;;;;;;;5.47;1.20;;;16.50;44.70;;;;;;7370918;19;20046;-73
2023/03/15 13:08:03;;;;;;;5.25;1.00;;;16.10;41.20;;;;;;7371911;19;20015;-73
2023/03/15 13:10:36;;;;;;;3.50;1.23;;;16.50;40.90;;;;;;7365188;19;20040;-73
2023/03/15 13:13:19;;;;;;;5.97;1.30;;;15.90;41.80;;;;;;7373292;19;20022;-73
2023/03/15 13:16:23;;;;;;;4.25;1.20;;;15.70;44.10;;;;;;7368846;19;20474;-76
2023/03/15 13:19:10;;;;;;;4.88;1.10;;;16.70;44.10;;;;;;7373120;19;20018;-74
2023/03/15 13:21:58;;;;;;;6.72;1.63;;;17.10;43.60;;;;;;7369294;19;20094;-74
2023/03/15 13:24:32;;;;;;;6.22;1.30;;;16.80;44.10;;;;;;7373539;19;20019;-73
2023/03/15 13:27:08;;;;;;;6.57;1.13;;;16.50;42.70;;;;;;7364379;19;20026;-68